createdAt,value
2023-03-24T00:01:13.930Z,99820.56
2023-03-24T00:03:48.821Z,99814.98
2023-03-24T00:06:22.837Z,99817.38
2023-03-24T00:08:55.726Z,99819.36
2023-03-24T00:11:28.551Z,99821.18
2023-03-24T00:14:01.096Z,99822.69
2023-03-24T00:16:35.021Z,99820.70
2023-03-24T00:19:07.794Z,99810.80
2023-03-24T00:21:42.156Z,99827.31
2023-03-24T00:24:16.682Z,99823.55
2023-03-24T00:26:52.055Z,99818.52
2023-03-24T00:29:24.919Z,99824.29
2023-03-24T00:31:57.572Z,99819.14
2023-03-24T00:34:32.273Z,99814.35
2023-03-24T00:37:05.127Z,99813.09
2023-03-24T00:39:38.040Z,99810.73
2023-03-24T00:42:10.573Z,99806.20
2023-03-24T00:44:44.956Z,99802.21
2023-03-24T00:47:25.966Z,99797.66
2023-03-24T00:50:02.063Z,99792.56
2023-03-24T00:52:35.251Z,99789.23
2023-03-24T00:55:09.893Z,99785.00
2023-03-24T00:57:49.853Z,99783.48
2023-03-24T01:00:25.005Z,99783.02
2023-03-24T01:03:03.557Z,99774.97
2023-03-24T01:05:37.507Z,99770.67
2023-03-24T01:08:10.811Z,99768.36
2023-03-24T01:10:50.561Z,99758.71
2023-03-24T01:13:25.882Z,99744.20
2023-03-24T01:15:59.423Z,99758.31
2023-03-24T01:18:32.094Z,99761.34
2023-03-24T01:21:04.728Z,99761.27
2023-03-24T01:23:38.600Z,99756.33
2023-03-24T01:26:12.847Z,99753.47
2023-03-24T01:28:45.968Z,99749.55
2023-03-24T01:31:18.527Z,99759.20
2023-03-24T01:33:51.727Z,99759.13
2023-03-24T01:36:25.279Z,99754.98
2023-03-24T01:39:01.239Z,99754.02
2023-03-24T01:41:37.327Z,99752.02
2023-03-24T01:44:27.701Z,99745.34
2023-03-24T01:47:01.469Z,99742.23
2023-03-24T01:49:37.941Z,99742.15
2023-03-24T01:52:13.552Z,99738.56
2023-03-24T01:54:50.894Z,99728.37
2023-03-24T01:57:29.038Z,99722.77
2023-03-24T02:00:05.227Z,99724.14
2023-03-24T02:02:54.850Z,99723.97
2023-03-24T02:05:30.473Z,99721.10
2023-03-24T02:08:10.129Z,99719.84
2023-03-24T02:10:44.345Z,99713.22
2023-03-24T02:13:17.352Z,99708.67
2023-03-24T02:16:01.112Z,99705.88
2023-03-24T02:18:44.978Z,99704.45
2023-03-24T02:21:47.518Z,99703.02
2023-03-24T02:24:51.517Z,99701.20
2023-03-24T02:27:44.197Z,99696.56
2023-03-24T02:30:55.925Z,99696.00
2023-03-24T02:34:04.722Z,99695.21
2023-03-24T02:37:03.272Z,99691.55
2023-03-24T02:39:53.137Z,99692.27
2023-03-24T02:42:36.073Z,99687.09
2023-03-24T02:45:21.408Z,99680.64
2023-03-24T02:48:09.300Z,99685.98
2023-03-24T02:50:51.232Z,99683.42
2023-03-24T02:53:32.312Z,99682.62
2023-03-24T02:56:33.543Z,99678.89
2023-03-24T02:59:20.591Z,99676.96
2023-03-24T03:02:00.145Z,99670.83
2023-03-24T03:05:01.091Z,99670.82
2023-03-24T03:07:37.816Z,99663.48
2023-03-24T03:10:16.656Z,99665.98
2023-03-24T03:12:52.377Z,99666.92
2023-03-24T03:15:29.442Z,99660.07
2023-03-24T03:18:08.747Z,99656.65
2023-03-24T03:20:50.755Z,99656.50
2023-03-24T03:23:31.423Z,99650.20
2023-03-24T03:26:09.952Z,99651.95
2023-03-24T03:28:50.236Z,99648.59
2023-03-24T03:31:30.318Z,99648.50
2023-03-24T03:34:11.037Z,99642.48
2023-03-24T03:36:51.865Z,99640.63
2023-03-24T03:39:29.814Z,99632.77
2023-03-24T03:42:03.504Z,99627.58
2023-03-24T03:44:36.928Z,99618.98
2023-03-24T03:47:09.659Z,99616.50
2023-03-24T03:49:48.243Z,99612.75
2023-03-24T03:52:22.177Z,99607.73
2023-03-24T03:54:57.494Z,99606.77
2023-03-24T03:57:30.946Z,99603.27
2023-03-24T04:00:27.001Z,99601.92
2023-03-24T04:03:50.737Z,99593.55
2023-03-24T04:06:36.129Z,99590.92
2023-03-24T04:09:19.224Z,99587.17
2023-03-24T04:12:10.554Z,99588.68
2023-03-24T04:15:35.702Z,99590.75
2023-03-24T04:18:48.291Z,99593.39
2023-03-24T04:21:38.577Z,99592.66
2023-03-24T04:24:26.907Z,99593.44
2023-03-24T04:27:09.557Z,99589.71
2023-03-24T04:29:53.165Z,99577.91
2023-03-24T04:32:33.453Z,99577.83
2023-03-24T04:35:13.096Z,99576.71
2023-03-24T04:38:17.364Z,99571.93
2023-03-24T04:40:55.732Z,99565.08
2023-03-24T04:43:36.827Z,99562.14
2023-03-24T04:46:11.512Z,99544.55
2023-03-24T04:49:08.032Z,99550.34
2023-03-24T04:51:44.203Z,99553.05
2023-03-24T04:54:37.359Z,99548.65
2023-03-24T04:57:13.102Z,99553.02
2023-03-24T04:59:49.102Z,99536.06
2023-03-24T05:02:22.022Z,99546.66
2023-03-24T05:04:54.684Z,99549.68
2023-03-24T05:07:31.860Z,99533.23
2023-03-24T05:10:06.626Z,99536.02
2023-03-24T05:12:44.224Z,99532.17
2023-03-24T05:15:25.570Z,99528.23
2023-03-24T05:18:02.755Z,99527.27
2023-03-24T05:20:37.001Z,99521.71
2023-03-24T05:23:17.185Z,99521.70
2023-03-24T05:25:50.318Z,99520.97
2023-03-24T05:28:24.111Z,99520.30
2023-03-24T05:30:57.964Z,99518.94
2023-03-24T05:33:52.906Z,99517.05
2023-03-24T05:36:26.165Z,99515.36
2023-03-24T05:39:04.066Z,99516.15
2023-03-24T05:41:44.665Z,99512.57
2023-03-24T05:44:17.219Z,99511.23
2023-03-24T05:46:57.413Z,99508.64
2023-03-24T05:49:30.410Z,99501.60
2023-03-24T05:52:03.134Z,99493.63
2023-03-24T05:54:36.468Z,99500.83
2023-03-24T05:57:19.680Z,99495.92
2023-03-24T06:00:17.061Z,99491.96
2023-03-24T06:03:14.450Z,99484.23
2023-03-24T06:05:50.977Z,99490.31
2023-03-24T06:08:24.703Z,99490.64
2023-03-24T06:11:02.567Z,99488.30
2023-03-24T06:13:35.159Z,99486.48
2023-03-24T06:16:09.913Z,99489.38
2023-03-24T06:18:55.195Z,99489.11
2023-03-24T06:21:50.727Z,99491.85
2023-03-24T06:24:25.290Z,99489.05
2023-03-24T06:26:59.436Z,99491.52
2023-03-24T06:29:32.543Z,99490.29
2023-03-24T06:32:05.720Z,99488.30
2023-03-24T06:34:42.982Z,99488.52
2023-03-24T06:37:24.490Z,99487.07
2023-03-24T06:39:55.629Z,99489.34
2023-03-24T06:42:30.989Z,99483.27
2023-03-24T06:45:04.368Z,99482.86
2023-03-24T06:47:37.252Z,99478.92
2023-03-24T06:50:11.261Z,99475.98
2023-03-24T06:52:44.517Z,99470.42
2023-03-24T06:55:18.936Z,99464.33
2023-03-24T06:57:51.651Z,99458.38
2023-03-24T07:00:48.294Z,99454.69
2023-03-24T07:03:42.064Z,99453.41
2023-03-24T07:06:40.217Z,99455.73
2023-03-24T07:09:18.977Z,99461.60
2023-03-24T07:11:51.620Z,99462.92
2023-03-24T07:14:26.705Z,99452.08
2023-03-24T07:17:00.397Z,99459.19
2023-03-24T07:19:33.693Z,99444.45
2023-03-24T07:22:24.752Z,99454.77
2023-03-24T07:25:20.204Z,99455.25
2023-03-24T07:28:12.032Z,99451.48
2023-03-24T07:30:44.952Z,99448.49
2023-03-24T07:33:17.760Z,99439.86
2023-03-24T07:35:50.445Z,99443.41
2023-03-24T07:38:23.038Z,99440.68
2023-03-24T07:40:58.975Z,99437.16
2023-03-24T07:43:31.713Z,99435.39
2023-03-24T07:46:23.807Z,99437.09
2023-03-24T07:49:01.173Z,99430.61
2023-03-24T07:51:40.656Z,99436.04
2023-03-24T07:54:27.476Z,99437.09
2023-03-24T07:57:00.206Z,99432.33
2023-03-24T07:59:34.271Z,99434.27
2023-03-24T08:02:17.799Z,99436.52
2023-03-24T08:05:25.060Z,99438.61
2023-03-24T08:08:06.778Z,99432.25
2023-03-24T08:10:39.308Z,99425.97
2023-03-24T08:13:11.892Z,99430.55
2023-03-24T08:15:44.494Z,99427.83
2023-03-24T08:18:17.385Z,99415.30
2023-03-24T08:20:50.593Z,99407.25
2023-03-24T08:23:23.071Z,99408.70
2023-03-24T08:25:55.852Z,99405.77
2023-03-24T08:28:28.412Z,99412.26
2023-03-24T08:31:01.064Z,99404.20
2023-03-24T08:33:33.526Z,99392.49
2023-03-24T08:36:07.089Z,99403.06
2023-03-24T08:38:39.965Z,99397.55
2023-03-24T08:41:12.416Z,99394.52
2023-03-24T08:43:45.264Z,99392.68
2023-03-24T08:46:17.778Z,99387.47
2023-03-24T08:48:51.569Z,99381.61
2023-03-24T08:51:23.982Z,99374.27
2023-03-24T08:53:56.476Z,99373.86
2023-03-24T08:56:29.257Z,99375.00
2023-03-24T08:59:01.703Z,99370.98
2023-03-24T09:01:35.535Z,99372.45
2023-03-24T09:04:08.318Z,99372.56
2023-03-24T09:06:40.935Z,99366.23
2023-03-24T09:09:13.416Z,99367.77
2023-03-24T09:11:45.929Z,99362.71
2023-03-24T09:14:18.676Z,99348.09
2023-03-24T09:16:51.597Z,99356.45
2023-03-24T09:19:24.500Z,99354.45
2023-03-24T09:21:56.970Z,99353.34
2023-03-24T09:24:29.426Z,99348.89
2023-03-24T09:27:02.157Z,99339.41
2023-03-24T09:29:34.893Z,99337.06
2023-03-24T09:32:07.624Z,99328.39
2023-03-24T09:34:40.260Z,99332.93
2023-03-24T09:37:12.717Z,99330.31
2023-03-24T09:39:45.138Z,99328.17
2023-03-24T09:42:23.224Z,99335.45
2023-03-24T09:44:58.476Z,99333.35
2023-03-24T09:47:34.921Z,99321.80
2023-03-24T09:50:17.581Z,99328.66
2023-03-24T09:52:53.133Z,99313.30
2023-03-24T09:55:28.387Z,99326.52
2023-03-24T09:58:04.570Z,99323.48
2023-03-24T10:00:37.659Z,99325.92
2023-03-24T10:03:21.502Z,99318.79
2023-03-24T10:05:59.774Z,99314.31
2023-03-24T10:08:37.266Z,99320.04
2023-03-24T10:11:16.585Z,99322.94
2023-03-24T10:14:03.826Z,99324.91
2023-03-24T10:16:44.409Z,99317.44
2023-03-24T10:19:30.480Z,99322.91
2023-03-24T10:22:12.358Z,99315.08
2023-03-24T10:24:52.932Z,99307.52
2023-03-24T10:27:31.998Z,99307.70
2023-03-24T10:30:14.810Z,99302.42
2023-03-24T10:32:47.509Z,99303.90
2023-03-24T10:35:24.385Z,99309.44
2023-03-24T10:38:00.477Z,99305.20
2023-03-24T10:40:34.734Z,99302.23
2023-03-24T10:43:09.637Z,99301.47
2023-03-24T10:45:45.563Z,99301.08
2023-03-24T10:48:37.408Z,99301.85
2023-03-24T10:51:15.581Z,99299.65
2023-03-24T10:53:49.985Z,99285.12
2023-03-24T10:56:41.409Z,99291.14
2023-03-24T10:59:27.565Z,99292.05
2023-03-24T11:02:04.148Z,99295.34
2023-03-24T11:04:38.773Z,99297.02
2023-03-24T11:07:21.205Z,99301.71
2023-03-24T11:10:03.219Z,99295.30
2023-03-24T11:12:38.279Z,99299.80
2023-03-24T11:15:22.142Z,99306.73
2023-03-24T11:18:01.733Z,99299.77
2023-03-24T11:20:37.379Z,99300.73
2023-03-24T11:23:18.221Z,99298.69
2023-03-24T11:26:03.676Z,99301.42
2023-03-24T11:28:41.290Z,99300.59
2023-03-24T11:31:24.607Z,99301.17
2023-03-24T11:34:01.591Z,99299.30
2023-03-24T11:36:50.239Z,99299.83
2023-03-24T11:39:25.831Z,99301.95
2023-03-24T11:42:17.002Z,99301.11
2023-03-24T11:44:53.064Z,99293.72
2023-03-24T11:47:30.273Z,99282.48
2023-03-24T11:50:19.114Z,99280.42
2023-03-24T11:52:55.578Z,99273.47
2023-03-24T11:55:35.864Z,99278.14
2023-03-24T11:58:18.792Z,99277.95
2023-03-24T12:00:58.168Z,99277.14
2023-03-24T12:03:56.645Z,99275.81
2023-03-24T12:06:42.200Z,99278.04
2023-03-24T12:09:24.609Z,99258.27
2023-03-24T12:12:17.509Z,99265.84
2023-03-24T12:15:17.267Z,99258.60
2023-03-24T12:18:10.548Z,99249.80
2023-03-24T12:20:51.961Z,99248.33
2023-03-24T12:23:35.593Z,99256.95
2023-03-24T12:26:17.855Z,99264.66
2023-03-24T12:29:05.993Z,99268.52
2023-03-24T12:32:06.204Z,99265.83
2023-03-24T12:34:54.720Z,99263.39
2023-03-24T12:37:34.634Z,99256.33
2023-03-24T12:40:40.132Z,99253.64
2023-03-24T12:43:24.306Z,99247.92
2023-03-24T12:45:59.828Z,99258.94
2023-03-24T12:48:46.288Z,99259.11
2023-03-24T12:51:29.270Z,99259.67
2023-03-24T12:54:13.540Z,99254.21
2023-03-24T12:56:49.909Z,99248.47
2023-03-24T12:59:28.520Z,99259.79
2023-03-24T13:02:13.587Z,99255.70
2023-03-24T13:04:50.935Z,99259.00
2023-03-24T13:07:28.654Z,99258.88
2023-03-24T13:10:07.814Z,99257.59
2023-03-24T13:12:45.587Z,99262.02
2023-03-24T13:15:22.049Z,99255.96
2023-03-24T13:18:01.538Z,99248.32
2023-03-24T13:20:41.496Z,99250.82
2023-03-24T13:23:29.670Z,99252.63
2023-03-24T13:26:12.144Z,99237.19
2023-03-24T13:28:53.144Z,99239.67
2023-03-24T13:31:29.626Z,99238.22
2023-03-24T13:34:03.860Z,99235.05
2023-03-24T13:36:48.174Z,99221.50
2023-03-24T13:39:23.873Z,99230.50
2023-03-24T13:41:58.972Z,99234.67
2023-03-24T13:44:39.535Z,99233.77
2023-03-24T13:47:17.010Z,99229.88
2023-03-24T13:49:58.737Z,99225.41
2023-03-24T13:52:36.319Z,99220.26
2023-03-24T13:55:16.247Z,99223.08
2023-03-24T13:57:59.220Z,99217.11
2023-03-24T14:00:31.773Z,99213.84
2023-03-24T14:03:32.390Z,99216.77
2023-03-24T14:06:09.170Z,99220.96
2023-03-24T14:08:55.831Z,99220.00
2023-03-24T14:11:51.150Z,99224.19
2023-03-24T14:14:29.387Z,99206.46
2023-03-24T14:17:16.710Z,99217.12
2023-03-24T14:20:25.756Z,99220.66
2023-03-24T14:22:58.515Z,99223.95
2023-03-24T14:25:33.199Z,99216.89
2023-03-24T14:28:26.474Z,99203.64
2023-03-24T14:31:05.008Z,99218.65
2023-03-24T14:33:38.921Z,99224.25
2023-03-24T14:36:14.801Z,99219.45
2023-03-24T14:38:47.708Z,99217.73
2023-03-24T14:41:34.389Z,99216.58
2023-03-24T14:44:07.763Z,99209.14
2023-03-24T14:46:43.409Z,99212.26
2023-03-24T14:49:30.362Z,99205.85
2023-03-24T14:52:12.087Z,99211.90
2023-03-24T14:54:49.684Z,99209.59
2023-03-24T14:57:26.089Z,99208.27
2023-03-24T15:00:08.998Z,99209.14
2023-03-24T15:02:44.789Z,99212.17
2023-03-24T15:05:31.665Z,99209.85
2023-03-24T15:08:12.089Z,99210.71
2023-03-24T15:10:49.531Z,99206.05
2023-03-24T15:13:41.193Z,99207.30
2023-03-24T15:16:24.089Z,99229.39
2023-03-24T15:19:01.783Z,99271.65
2023-03-24T15:21:38.406Z,99277.84
2023-03-24T15:24:29.402Z,99274.10
2023-03-24T15:27:21.378Z,99275.31
2023-03-24T15:29:59.339Z,99276.35
2023-03-24T15:32:33.043Z,99270.76
2023-03-24T15:35:08.880Z,99256.17
2023-03-24T15:37:48.318Z,99235.95
2023-03-24T15:40:41.763Z,99218.20
2023-03-24T15:43:22.719Z,99218.75
2023-03-24T15:46:08.864Z,99219.23
2023-03-24T15:48:49.009Z,99231.13
2023-03-24T15:51:21.669Z,99240.89
2023-03-24T15:54:00.261Z,99245.95
2023-03-24T15:56:34.346Z,99248.45
2023-03-24T15:59:17.546Z,99248.36
2023-03-24T16:01:50.569Z,99246.10
2023-03-24T16:04:23.689Z,99253.66
2023-03-24T16:06:57.790Z,99251.12
2023-03-24T16:09:41.001Z,99255.18
2023-03-24T16:12:14.359Z,99255.34
2023-03-24T16:14:46.921Z,99264.52
2023-03-24T16:17:19.339Z,99261.28
2023-03-24T16:19:52.205Z,99257.73
2023-03-24T16:22:24.904Z,99257.62
2023-03-24T16:24:57.300Z,99254.73
2023-03-24T16:27:30.017Z,99262.48
2023-03-24T16:30:03.078Z,99245.29
2023-03-24T16:32:35.629Z,99277.03
2023-03-24T16:35:10.015Z,99275.07
2023-03-24T16:37:43.283Z,99275.77
2023-03-24T16:40:26.821Z,99284.33
2023-03-24T16:43:02.230Z,99301.40
2023-03-24T16:45:35.734Z,99285.30
2023-03-24T16:48:08.677Z,99302.10
2023-03-24T16:50:42.580Z,99301.17
2023-03-24T16:53:15.045Z,99317.68
2023-03-24T16:55:47.711Z,99323.65
2023-03-24T16:58:20.320Z,99331.11
2023-03-24T17:00:53.636Z,99340.36
2023-03-24T17:03:29.882Z,99340.77
2023-03-24T17:06:03.673Z,99341.88
2023-03-24T17:08:36.250Z,99337.17
2023-03-24T17:11:11.156Z,99328.88
2023-03-24T17:13:44.284Z,99326.96
2023-03-24T17:16:18.527Z,99334.84
2023-03-24T17:18:50.945Z,99349.09
2023-03-24T17:21:24.118Z,99358.38
2023-03-24T17:23:56.713Z,99361.07
2023-03-24T17:26:30.837Z,99365.17
2023-03-24T17:29:04.706Z,99362.55
2023-03-24T17:31:37.385Z,99361.14
2023-03-24T17:34:21.697Z,99354.05
2023-03-24T17:36:55.625Z,99336.17
2023-03-24T17:39:27.995Z,99334.89
2023-03-24T17:42:01.622Z,99333.87
2023-03-24T17:44:35.328Z,99330.31
2023-03-24T17:47:08.756Z,99329.60
2023-03-24T17:49:41.557Z,99321.02
2023-03-24T17:52:14.163Z,99315.30
2023-03-24T17:54:46.869Z,99313.70
2023-03-24T17:57:19.690Z,99291.34
2023-03-24T17:59:53.090Z,99289.50
2023-03-24T18:02:26.198Z,99291.90
2023-03-24T18:04:58.805Z,99300.36
2023-03-24T18:07:31.401Z,99318.58
2023-03-24T18:10:03.962Z,99313.95
2023-03-24T18:12:37.393Z,99305.40
2023-03-24T18:15:11.742Z,99334.69
2023-03-24T18:17:44.783Z,99355.73
2023-03-24T18:20:17.770Z,99363.58
2023-03-24T18:22:50.970Z,99366.34
2023-03-24T18:25:23.512Z,99369.50
2023-03-24T18:27:57.163Z,99375.52
2023-03-24T18:30:30.874Z,99383.05
2023-03-24T18:33:03.513Z,99385.54
2023-03-24T18:35:36.791Z,99388.90
2023-03-24T18:38:09.329Z,99389.79
2023-03-24T18:40:41.774Z,99391.86
2023-03-24T18:43:15.025Z,99396.44
2023-03-24T18:45:47.534Z,99396.17
2023-03-24T18:48:20.750Z,99395.02
2023-03-24T18:50:53.754Z,99401.66
2023-03-24T18:53:26.229Z,99412.34
2023-03-24T18:55:59.555Z,99421.38
2023-03-24T18:58:32.542Z,99427.84
2023-03-24T19:01:09.095Z,99427.80
2023-03-24T19:03:44.162Z,99426.52
2023-03-24T19:06:17.598Z,99430.18
2023-03-24T19:08:53.881Z,99423.96
2023-03-24T19:11:27.399Z,99416.61
2023-03-24T19:14:00.702Z,99415.55
2023-03-24T19:16:33.703Z,99410.52
2023-03-24T19:19:06.933Z,99416.46
2023-03-24T19:21:40.460Z,99424.61
2023-03-24T19:24:14.035Z,99428.32
2023-03-24T19:26:47.100Z,99418.86
2023-03-24T19:29:19.940Z,99420.03
2023-03-24T19:31:52.651Z,99418.91
2023-03-24T19:34:25.802Z,99418.13
2023-03-24T19:36:58.366Z,99409.31
2023-03-24T19:39:31.118Z,99397.92
2023-03-24T19:42:07.768Z,99427.43
2023-03-24T19:44:41.212Z,99425.16
2023-03-24T19:47:13.624Z,99427.84
2023-03-24T19:49:46.291Z,99434.02
2023-03-24T19:52:18.867Z,99435.88
2023-03-24T19:54:52.587Z,99444.04
2023-03-24T19:57:25.312Z,99438.81
2023-03-24T19:59:57.884Z,99440.04
2023-03-24T20:02:30.614Z,99443.52
2023-03-24T20:05:03.858Z,99438.30
2023-03-24T20:07:37.744Z,99443.80
2023-03-24T20:10:12.017Z,99444.92
2023-03-24T20:12:44.863Z,99445.16
2023-03-24T20:15:17.817Z,99445.04
2023-03-24T20:17:50.775Z,99449.45
2023-03-24T20:20:23.996Z,99451.11
2023-03-24T20:22:56.476Z,99443.02
2023-03-24T20:25:29.436Z,99450.71
2023-03-24T20:28:02.234Z,99449.43
2023-03-24T20:30:34.672Z,99448.09
2023-03-24T20:33:07.271Z,99429.00
2023-03-24T20:35:40.907Z,99435.20
2023-03-24T20:38:13.478Z,99444.60
2023-03-24T20:40:47.131Z,99449.36
2023-03-24T20:43:21.341Z,99449.13
2023-03-24T20:45:57.541Z,99444.95
2023-03-24T20:48:30.683Z,99450.69
2023-03-24T20:51:04.270Z,99458.06
2023-03-24T20:53:36.892Z,99458.89
2023-03-24T20:56:13.454Z,99462.86
2023-03-24T20:58:47.310Z,99465.98
2023-03-24T21:01:22.401Z,99462.80
2023-03-24T21:04:00.123Z,99468.59
2023-03-24T21:06:40.869Z,99469.30
2023-03-24T21:09:13.766Z,99470.32
2023-03-24T21:11:46.625Z,99474.63
2023-03-24T21:14:19.085Z,99467.92
2023-03-24T21:16:52.543Z,99466.28
2023-03-24T21:19:25.275Z,99475.38
2023-03-24T21:21:57.727Z,99466.11
2023-03-24T21:24:30.179Z,99470.59
2023-03-24T21:27:02.957Z,99471.00
2023-03-24T21:29:35.533Z,99470.62
2023-03-24T21:32:08.194Z,99462.17
2023-03-24T21:34:41.025Z,99460.95
2023-03-24T21:37:17.630Z,99465.91
2023-03-24T21:39:50.044Z,99463.06
2023-03-24T21:42:22.818Z,99448.50
2023-03-24T21:44:55.363Z,99458.24
2023-03-24T21:47:28.277Z,99457.55
2023-03-24T21:50:03.134Z,99463.23
2023-03-24T21:52:38.999Z,99462.48
2023-03-24T21:55:14.689Z,99467.67
2023-03-24T21:57:48.797Z,99462.19
2023-03-24T22:00:24.620Z,99469.11
2023-03-24T22:02:58.349Z,99474.47
2023-03-24T22:05:32.865Z,99483.30
2023-03-24T22:08:06.639Z,99480.19
2023-03-24T22:10:42.578Z,99484.58
2023-03-24T22:13:15.155Z,99492.67
2023-03-24T22:15:47.568Z,99485.85
2023-03-24T22:18:20.484Z,99489.05
2023-03-24T22:21:01.181Z,99491.83
2023-03-24T22:23:36.691Z,99493.98
2023-03-24T22:26:11.083Z,99491.67
2023-03-24T22:28:44.179Z,99491.27
2023-03-24T22:31:18.076Z,99497.96
2023-03-24T22:33:50.793Z,99499.80
2023-03-24T22:36:23.190Z,99503.69
2023-03-24T22:38:55.867Z,99503.36
2023-03-24T22:41:28.294Z,99501.14
2023-03-24T22:44:00.779Z,99494.77
2023-03-24T22:46:33.301Z,99482.28
2023-03-24T22:49:06.512Z,99477.35
2023-03-24T22:51:38.921Z,99482.20
2023-03-24T22:54:11.448Z,99485.06
2023-03-24T22:56:43.857Z,99479.81
2023-03-24T22:59:16.597Z,99477.02
2023-03-24T23:01:56.135Z,99464.77
2023-03-24T23:04:39.848Z,99479.55
2023-03-24T23:07:12.319Z,99486.42
2023-03-24T23:09:44.944Z,99483.95
2023-03-24T23:12:17.565Z,99486.64
2023-03-24T23:14:50.436Z,99491.10
2023-03-24T23:17:24.398Z,99492.45
2023-03-24T23:19:58.177Z,99495.23
2023-03-24T23:22:31.726Z,99493.11
2023-03-24T23:25:05.842Z,99483.54
2023-03-24T23:27:39.736Z,99485.36
2023-03-24T23:30:15.742Z,99494.42
2023-03-24T23:32:48.724Z,99498.71
2023-03-24T23:35:21.763Z,99505.80
2023-03-24T23:37:54.253Z,99505.80
2023-03-24T23:40:26.790Z,99507.39
2023-03-24T23:42:59.899Z,99506.64
2023-03-24T23:45:32.495Z,99504.84
2023-03-24T23:48:05.425Z,99497.54
2023-03-24T23:50:38.320Z,99492.27
2023-03-24T23:53:10.939Z,99495.52
2023-03-24T23:55:43.395Z,99503.73
2023-03-24T23:58:18.421Z,99504.45
